EKYT/AAL METAR and TAF weather

Enter ICAO airport designator
Station Type Date Time Source
EKYT METAR 2020/09/18 19:50 UTC NOAA

EKYT 181950Z AUTO 25011KT 9999 NCD 12/11 Q1026


Station Type Date Time Source
EKYT Decoded METAR 2020/09/18 19:50 UTC NOAA

Aalborg, Denmark (EKYT) 57-06N 009-51E 13M
Sep 18, 2020 - 03:50 PM EDT / 2020.09.18 1950 UTC
Wind: from the WSW (250 degrees) at 13 MPH (11 KT):0
Visibility: greater than 7 mile(s):0
Temperature: 53 F (12 C)
Dew Point: 51 F (11 C)
Relative Humidity: 93%
Pressure (altimeter): 30.30 in. Hg (1026 hPa)
ob: EKYT 181950Z AUTO 25011KT 9999 NCD 12/11 Q1026
cycle: 20

Station Type Date Time Source
EKYT TAF 2020/09/18 18:31 UTC NOAA

TAF EKYT 181703Z 1818/1918 27008KT 9999 FEW200
TEMPO 1821/1824 3000 MIFG BR
TEMPO 1900/1909 0800 BCFG
BECMG 1909/1912 34005KT

Example: see airport list